createdAt,value
2022-08-31T00:00:11.290Z,102482.06
2022-08-31T00:02:57.534Z,102485.59
2022-08-31T00:05:24.406Z,102482.06
2022-08-31T00:07:51.931Z,102478.59
2022-08-31T00:10:20.385Z,102481.28
2022-08-31T00:13:00.136Z,102476.75
2022-08-31T00:15:27.802Z,102480.38
2022-08-31T00:17:56.191Z,102474.97
2022-08-31T00:20:32.489Z,102484.06
2022-08-31T00:23:05.116Z,102483.09
2022-08-31T00:25:33.737Z,102477.81
2022-08-31T00:28:00.287Z,102474.97
2022-08-31T00:30:26.968Z,102473.34
2022-08-31T00:32:53.591Z,102478.56
2022-08-31T00:35:24.115Z,102472.38
2022-08-31T00:37:50.683Z,102475.09
2022-08-31T00:40:17.348Z,102473.22
2022-08-31T00:42:43.966Z,102469.59
2022-08-31T00:45:11.070Z,102473.22
2022-08-31T00:47:38.117Z,102472.44
2022-08-31T00:50:07.989Z,102468.06
2022-08-31T00:52:39.012Z,102471.56
2022-08-31T00:55:13.170Z,102473.44
2022-08-31T00:57:41.709Z,102475.25
2022-08-31T01:00:12.259Z,102468.97
2022-08-31T01:02:39.287Z,102475.25
2022-08-31T01:05:07.094Z,102477.13
2022-08-31T01:07:33.705Z,102478.94
2022-08-31T01:10:00.431Z,102470.84
2022-08-31T01:12:27.906Z,102482.66
2022-08-31T01:14:55.504Z,102474.53
2022-08-31T01:17:22.175Z,102471.78
2022-08-31T01:20:14.189Z,102480.72
2022-08-31T01:23:02.281Z,102476.25
2022-08-31T01:25:33.773Z,102479.97
2022-08-31T01:28:02.659Z,102477.28
2022-08-31T01:30:29.220Z,102477.19
2022-08-31T01:32:55.800Z,102479.13
2022-08-31T01:35:22.366Z,102476.44
2022-08-31T01:37:49.532Z,102480.06
2022-08-31T01:40:17.169Z,102488.22
2022-08-31T01:42:43.760Z,102486.44
2022-08-31T01:45:10.837Z,102487.28
2022-08-31T01:47:39.356Z,102482.84
2022-08-31T01:50:06.351Z,102480.25
2022-08-31T01:52:34.215Z,102484.72
2022-08-31T01:55:03.532Z,102484.78
2022-08-31T01:57:33.411Z,102488.25
2022-08-31T02:00:03.142Z,102493.72
2022-08-31T02:02:29.795Z,102492.81
2022-08-31T02:04:56.404Z,102493.63
2022-08-31T02:07:23.012Z,102483.97
2022-08-31T02:09:49.574Z,102493.97
2022-08-31T02:12:17.492Z,102488.38
2022-08-31T02:14:44.064Z,102493.84
2022-08-31T02:17:10.780Z,102493.75
2022-08-31T02:19:37.359Z,102490.41
2022-08-31T02:22:04.052Z,102484.94
2022-08-31T02:24:30.671Z,102486.59
2022-08-31T02:26:57.276Z,102483.94
2022-08-31T02:29:23.911Z,102491.22
2022-08-31T02:31:50.744Z,102484.94
2022-08-31T02:34:17.437Z,102478.69
2022-08-31T02:36:45.342Z,102486.78
2022-08-31T02:39:12.577Z,102483.13
2022-08-31T02:41:41.645Z,102473.44
2022-08-31T02:44:08.280Z,102480.50
2022-08-31T02:46:35.036Z,102483.31
2022-08-31T02:49:01.971Z,102482.31
2022-08-31T02:51:28.572Z,102477.00
2022-08-31T02:53:55.251Z,102470.75
2022-08-31T02:56:22.691Z,102475.28
2022-08-31T02:58:54.919Z,102481.59
2022-08-31T03:01:23.164Z,102474.38
2022-08-31T03:03:49.935Z,102479.88
2022-08-31T03:06:17.559Z,102478.06
2022-08-31T03:08:44.111Z,102474.34
2022-08-31T03:11:10.850Z,102470.88
2022-08-31T03:13:39.321Z,102476.31
2022-08-31T03:16:06.644Z,102470.84
2022-08-31T03:18:33.772Z,102470.00
2022-08-31T03:21:00.445Z,102472.69
2022-08-31T03:23:27.095Z,102470.91
2022-08-31T03:25:53.658Z,102474.59
2022-08-31T03:28:20.315Z,102473.66
2022-08-31T03:30:46.964Z,102470.97
2022-08-31T03:33:14.036Z,102478.22
2022-08-31T03:35:44.716Z,102472.88
2022-08-31T03:38:13.042Z,102471.09
2022-08-31T03:40:43.565Z,102473.75
2022-08-31T03:43:11.471Z,102475.56
2022-08-31T03:45:40.109Z,102480.13
2022-08-31T03:48:12.004Z,102477.38
2022-08-31T03:50:40.399Z,102482.84
2022-08-31T03:53:07.872Z,102479.28
2022-08-31T03:55:36.423Z,102487.28
2022-08-31T03:58:03.231Z,102489.09
2022-08-31T04:00:31.364Z,102482.72
2022-08-31T04:02:59.787Z,102487.34
2022-08-31T04:05:27.963Z,102483.78
2022-08-31T04:07:55.072Z,102490.19
2022-08-31T04:10:23.082Z,102494.59
2022-08-31T04:12:50.297Z,102489.28
2022-08-31T04:15:17.962Z,102491.06
2022-08-31T04:17:45.532Z,102490.16
2022-08-31T04:20:12.160Z,102490.16
2022-08-31T04:22:38.735Z,102494.69
2022-08-31T04:25:05.676Z,102491.06
2022-08-31T04:27:32.269Z,102492.91
2022-08-31T04:29:58.869Z,102492.91
2022-08-31T04:32:25.525Z,102499.16
2022-08-31T04:34:56.115Z,102499.19
2022-08-31T04:37:23.224Z,102496.50
2022-08-31T04:39:50.838Z,102504.59
2022-08-31T04:42:17.908Z,102499.28
2022-08-31T04:44:44.491Z,102502.00
2022-08-31T04:47:11.093Z,102498.34
2022-08-31T04:49:37.739Z,102502.06
2022-08-31T04:52:04.328Z,102495.81
2022-08-31T04:54:30.888Z,102499.38
2022-08-31T04:56:59.195Z,102505.53
2022-08-31T04:59:27.440Z,102502.97
2022-08-31T05:01:54.805Z,102506.53
2022-08-31T05:04:24.574Z,102499.41
2022-08-31T05:06:51.355Z,102507.53
2022-08-31T05:09:20.584Z,102499.44
2022-08-31T05:11:47.495Z,102508.47
2022-08-31T05:14:14.065Z,102511.13
2022-08-31T05:16:41.767Z,102508.34
2022-08-31T05:19:08.805Z,102511.03
2022-08-31T05:21:37.758Z,102516.53
2022-08-31T05:24:09.447Z,102516.59
2022-08-31T05:26:42.125Z,102517.38
2022-08-31T05:29:09.395Z,102515.53
2022-08-31T05:31:38.108Z,102521.00
2022-08-31T05:34:05.639Z,102518.25
2022-08-31T05:36:33.248Z,102518.28
2022-08-31T05:39:01.464Z,102520.13
2022-08-31T05:41:29.530Z,102517.50
2022-08-31T05:43:56.090Z,102521.91
2022-08-31T05:46:22.845Z,102522.03
2022-08-31T05:48:50.088Z,102525.53
2022-08-31T05:51:18.249Z,102529.13
2022-08-31T05:53:45.551Z,102524.78
2022-08-31T05:56:14.465Z,102522.97
2022-08-31T05:58:46.207Z,102516.63
2022-08-31T06:01:20.135Z,102534.56
2022-08-31T06:03:47.327Z,102532.88
2022-08-31T06:06:14.473Z,102524.78
2022-08-31T06:08:42.233Z,102528.41
2022-08-31T06:11:14.268Z,102536.41
2022-08-31T06:13:41.932Z,102532.88
2022-08-31T06:16:09.786Z,102541.75
2022-08-31T06:18:41.019Z,102538.28
2022-08-31T06:21:09.571Z,102534.56
2022-08-31T06:23:39.736Z,102536.34
2022-08-31T06:26:12.717Z,102534.47
2022-08-31T06:28:40.613Z,102542.75
2022-08-31T06:31:12.146Z,102544.59
2022-08-31T06:33:39.941Z,102549.03
2022-08-31T06:36:11.495Z,102546.28
2022-08-31T06:38:38.671Z,102538.47
2022-08-31T06:41:12.482Z,102540.94
2022-08-31T06:43:39.547Z,102538.31
2022-08-31T06:46:06.812Z,102547.34
2022-08-31T06:48:34.830Z,102549.97
2022-08-31T06:51:01.431Z,102548.28
2022-08-31T06:53:28.870Z,102549.16
2022-08-31T06:55:55.727Z,102548.28
2022-08-31T06:58:22.288Z,102546.44
2022-08-31T07:00:49.391Z,102547.31
2022-08-31T07:03:33.043Z,102552.75
2022-08-31T07:06:04.759Z,102550.94
2022-08-31T07:08:31.800Z,102546.44
2022-08-31T07:10:58.473Z,102556.34
2022-08-31T07:13:25.599Z,102552.72
2022-08-31T07:15:52.237Z,102550.94
2022-08-31T07:18:18.891Z,102555.38
2022-08-31T07:20:45.564Z,102566.13
2022-08-31T07:23:12.196Z,102562.47
2022-08-31T07:25:39.500Z,102555.28
2022-08-31T07:28:06.461Z,102556.13
2022-08-31T07:30:39.939Z,102564.25
2022-08-31T07:33:06.804Z,102558.78
2022-08-31T07:35:33.532Z,102561.41
2022-08-31T07:38:18.588Z,102562.31
2022-08-31T07:41:04.061Z,102561.41
2022-08-31T07:43:36.577Z,102560.53
2022-08-31T07:46:03.246Z,102557.75
2022-08-31T07:48:31.739Z,102555.97
2022-08-31T07:51:00.226Z,102555.91
2022-08-31T07:53:26.896Z,102555.91
2022-08-31T07:55:55.660Z,102562.22
2022-08-31T07:58:22.717Z,102557.72
2022-08-31T08:00:50.426Z,102559.50
2022-08-31T08:03:17.138Z,102562.16
2022-08-31T08:05:44.144Z,102554.91
2022-08-31T08:08:13.874Z,102554.00
2022-08-31T08:10:46.654Z,102565.81
2022-08-31T08:13:20.460Z,102566.66
2022-08-31T08:15:48.795Z,102571.09
2022-08-31T08:18:15.480Z,102567.44
2022-08-31T08:20:42.154Z,102571.03
2022-08-31T08:23:14.550Z,102570.19
2022-08-31T08:25:43.587Z,102575.56
2022-08-31T08:28:38.254Z,102571.97
2022-08-31T08:31:04.960Z,102577.34
2022-08-31T08:33:32.117Z,102574.56
2022-08-31T08:36:04.790Z,102578.16
2022-08-31T08:38:31.877Z,102575.47
2022-08-31T08:40:59.961Z,102580.00
2022-08-31T08:43:32.473Z,102579.00
2022-08-31T08:46:15.164Z,102577.19
2022-08-31T08:48:55.368Z,102583.50
2022-08-31T08:51:32.559Z,102580.78
2022-08-31T08:54:02.128Z,102582.56
2022-08-31T08:56:35.800Z,102580.78
2022-08-31T08:59:02.389Z,102595.19
2022-08-31T09:01:29.674Z,102583.44
2022-08-31T09:04:17.174Z,102587.00
2022-08-31T09:07:24.082Z,102579.00
2022-08-31T09:10:18.831Z,102579.81
2022-08-31T09:12:54.289Z,102584.38
2022-08-31T09:15:36.481Z,102578.84
2022-08-31T09:18:12.575Z,102580.69
2022-08-31T09:20:41.240Z,102587.81
2022-08-31T09:23:08.209Z,102585.97
2022-08-31T09:25:44.720Z,102587.78
2022-08-31T09:28:15.222Z,102582.38
2022-08-31T09:30:44.741Z,102579.63
2022-08-31T09:33:32.565Z,102580.47
2022-08-31T09:36:16.316Z,102578.66
2022-08-31T09:38:46.931Z,102578.63
2022-08-31T09:41:32.166Z,102571.53
2022-08-31T09:44:24.520Z,102575.91
2022-08-31T09:46:54.301Z,102575.06
2022-08-31T09:49:28.883Z,102573.19
2022-08-31T09:52:49.310Z,102569.56
2022-08-31T09:55:25.392Z,102577.69
2022-08-31T09:57:57.663Z,102577.69
2022-08-31T10:00:42.671Z,102574.88
2022-08-31T10:03:20.801Z,102564.94
2022-08-31T10:05:50.529Z,102575.72
2022-08-31T10:08:39.243Z,102571.25
2022-08-31T10:11:12.285Z,102568.63
2022-08-31T10:14:04.493Z,102564.91
2022-08-31T10:16:36.417Z,102574.81
2022-08-31T10:19:58.358Z,102571.13
2022-08-31T10:22:31.868Z,102565.75
2022-08-31T10:25:12.907Z,102569.44
2022-08-31T10:27:53.202Z,102569.31
2022-08-31T10:30:36.449Z,102559.38
2022-08-31T10:33:10.707Z,102556.63
2022-08-31T10:35:45.868Z,102552.13
2022-08-31T10:38:26.195Z,102555.75
2022-08-31T10:41:00.235Z,102551.19
2022-08-31T10:43:34.717Z,102543.97
2022-08-31T10:46:03.588Z,102546.56
2022-08-31T10:48:31.978Z,102552.88
2022-08-31T10:51:18.134Z,102542.06
2022-08-31T10:53:53.766Z,102548.41
2022-08-31T10:56:26.162Z,102545.69
2022-08-31T10:59:07.158Z,102540.28
2022-08-31T11:02:04.398Z,102541.13
2022-08-31T11:04:39.999Z,102541.09
2022-08-31T11:07:32.865Z,102535.59
2022-08-31T11:10:12.078Z,102532.75
2022-08-31T11:12:44.600Z,102532.75
2022-08-31T11:15:40.253Z,102532.81
2022-08-31T11:18:39.889Z,102529.19
2022-08-31T11:21:37.820Z,102530.91
2022-08-31T11:24:23.012Z,102523.66
2022-08-31T11:27:14.485Z,102530.84
2022-08-31T11:30:00.725Z,102527.13
2022-08-31T11:32:37.724Z,102528.94
2022-08-31T11:35:10.375Z,102526.09
2022-08-31T11:37:50.993Z,102528.75
2022-08-31T11:40:41.659Z,102527.00
2022-08-31T11:43:35.057Z,102533.16
2022-08-31T11:46:27.226Z,102528.66
2022-08-31T11:48:54.848Z,102530.44
2022-08-31T11:51:42.539Z,102518.69
2022-08-31T11:54:26.702Z,102512.22
2022-08-31T11:56:57.663Z,102513.19
2022-08-31T11:59:32.527Z,102514.06
2022-08-31T12:02:34.650Z,102505.00
2022-08-31T12:05:05.286Z,102510.47
2022-08-31T12:07:41.268Z,102498.69
2022-08-31T12:10:45.113Z,102501.28
2022-08-31T12:13:20.458Z,102503.19
2022-08-31T12:15:49.816Z,102501.38
2022-08-31T12:18:46.697Z,102503.09
2022-08-31T12:21:50.784Z,102492.25
2022-08-31T12:24:36.150Z,102497.56
2022-08-31T12:27:20.085Z,102498.69
2022-08-31T12:29:46.771Z,102497.69
2022-08-31T12:32:13.294Z,102507.59
2022-08-31T12:35:08.886Z,102502.94
2022-08-31T12:37:37.335Z,102503.91
2022-08-31T12:40:22.623Z,102494.91
2022-08-31T12:42:59.345Z,102503.00
2022-08-31T12:45:44.085Z,102497.53
2022-08-31T12:48:28.951Z,102502.88
2022-08-31T12:51:21.098Z,102498.41
2022-08-31T12:54:21.688Z,102491.97
2022-08-31T12:56:51.138Z,102490.06
2022-08-31T12:59:23.585Z,102493.53
2022-08-31T13:01:51.153Z,102486.47
2022-08-31T13:04:19.321Z,102500.97
2022-08-31T13:06:48.288Z,102496.41
2022-08-31T13:09:31.847Z,102499.00
2022-08-31T13:11:59.518Z,102490.81
2022-08-31T13:14:40.582Z,102477.22
2022-08-31T13:17:19.649Z,102490.00
2022-08-31T13:19:58.597Z,102483.66
2022-08-31T13:22:34.974Z,102487.19
2022-08-31T13:25:16.426Z,102486.31
2022-08-31T13:27:48.663Z,102483.44
2022-08-31T13:30:19.129Z,102472.66
2022-08-31T13:32:49.802Z,102473.44
2022-08-31T13:35:20.997Z,102474.31
2022-08-31T13:38:05.442Z,102477.91
2022-08-31T13:40:37.819Z,102466.03
2022-08-31T13:43:09.559Z,102460.47
2022-08-31T13:45:58.212Z,102462.25
2022-08-31T13:48:33.932Z,102456.75
2022-08-31T13:51:14.741Z,102458.56
2022-08-31T13:54:12.900Z,102456.84
2022-08-31T13:56:55.374Z,102455.88
2022-08-31T13:59:24.547Z,102449.53
2022-08-31T14:01:54.552Z,102452.97
2022-08-31T14:04:48.478Z,102453.94
2022-08-31T14:07:27.588Z,102445.69
2022-08-31T14:10:04.945Z,102446.75
2022-08-31T14:12:43.949Z,102454.75
2022-08-31T14:15:10.448Z,102448.19
2022-08-31T14:20:44.139Z,102451.53
2022-08-31T14:23:25.807Z,102442.63
2022-08-31T14:25:54.521Z,102447.03
2022-08-31T14:28:28.043Z,102450.84
2022-08-31T14:30:55.790Z,102445.19
2022-08-31T14:33:24.148Z,102441.56
2022-08-31T14:35:55.441Z,102438.03
2022-08-31T14:38:25.090Z,102429.75
2022-08-31T14:40:51.738Z,102437.06
2022-08-31T14:43:18.528Z,102430.75
2022-08-31T14:45:45.337Z,102430.81
2022-08-31T14:48:16.824Z,102426.22
2022-08-31T14:50:43.517Z,102428.81
2022-08-31T14:53:10.308Z,102422.47
2022-08-31T14:55:39.641Z,102430.75
2022-08-31T14:58:12.115Z,102417.25
2022-08-31T15:00:49.779Z,102421.69
2022-08-31T15:03:24.257Z,102423.38
2022-08-31T15:05:51.268Z,102419.69
2022-08-31T15:08:23.301Z,102424.03
2022-08-31T15:11:06.152Z,102425.00
2022-08-31T15:13:34.058Z,102424.13
2022-08-31T15:16:04.057Z,102426.00
2022-08-31T15:18:33.735Z,102417.91
2022-08-31T15:21:02.231Z,102416.16
2022-08-31T15:23:30.629Z,102418.81
2022-08-31T15:26:04.134Z,102416.00
2022-08-31T15:28:31.716Z,102422.50
2022-08-31T15:30:58.985Z,102417.03
2022-08-31T15:33:25.805Z,102412.47
2022-08-31T15:36:03.370Z,102419.69
2022-08-31T15:38:29.948Z,102416.16
2022-08-31T15:40:57.716Z,102427.03
2022-08-31T15:43:24.483Z,102426.22
2022-08-31T15:45:51.319Z,102423.47
2022-08-31T15:48:36.794Z,102417.16
2022-08-31T15:51:03.645Z,102419.03
2022-08-31T15:53:30.672Z,102421.69
2022-08-31T15:56:05.797Z,102414.41
2022-08-31T15:58:33.784Z,102420.94
2022-08-31T16:01:01.113Z,102409.97
2022-08-31T16:03:34.362Z,102411.06
2022-08-31T16:06:04.125Z,102410.03
2022-08-31T16:08:30.791Z,102407.38
2022-08-31T16:10:57.384Z,102410.84
2022-08-31T16:13:24.004Z,102404.66
2022-08-31T16:15:52.279Z,102407.22
2022-08-31T16:18:22.381Z,102398.38
2022-08-31T16:20:50.443Z,102400.97
2022-08-31T16:23:17.264Z,102398.44
2022-08-31T16:25:48.582Z,102397.31
2022-08-31T16:28:19.340Z,102399.28
2022-08-31T16:30:46.192Z,102409.00
2022-08-31T16:33:12.819Z,102400.97
2022-08-31T16:35:39.679Z,102411.94
2022-08-31T16:38:07.078Z,102410.09
2022-08-31T16:40:34.167Z,102405.47
2022-08-31T16:43:01.598Z,102407.44
2022-08-31T16:45:28.289Z,102405.47
2022-08-31T16:48:14.954Z,102411.66
2022-08-31T16:50:48.628Z,102404.50
2022-08-31T16:53:18.073Z,102409.88
2022-08-31T16:55:47.337Z,102406.28
2022-08-31T16:58:24.925Z,102408.09
2022-08-31T17:01:12.682Z,102402.50
2022-08-31T17:04:04.908Z,102409.88
2022-08-31T17:06:34.424Z,102403.56
2022-08-31T17:09:05.501Z,102399.91
2022-08-31T17:11:46.123Z,102400.75
2022-08-31T17:14:17.631Z,102400.81
2022-08-31T17:16:44.639Z,102402.59
2022-08-31T17:19:13.591Z,102407.03
2022-08-31T17:21:49.748Z,102398.00
2022-08-31T17:24:28.290Z,102410.72
2022-08-31T17:26:59.612Z,102406.19
2022-08-31T17:29:28.052Z,102413.44
2022-08-31T17:31:55.951Z,102417.91
2022-08-31T17:34:26.898Z,102412.53
2022-08-31T17:36:54.805Z,102414.31
2022-08-31T17:39:21.897Z,102418.88
2022-08-31T17:41:50.530Z,102417.09
2022-08-31T17:44:19.515Z,102419.75
2022-08-31T17:46:50.056Z,102420.63
2022-08-31T17:49:19.172Z,102416.97
2022-08-31T17:51:47.997Z,102415.25
2022-08-31T17:54:18.872Z,102418.06
2022-08-31T17:56:53.386Z,102414.25
2022-08-31T17:59:23.233Z,102416.00
2022-08-31T18:01:52.390Z,102420.69
2022-08-31T18:04:20.862Z,102423.38
2022-08-31T18:06:51.528Z,102419.91
2022-08-31T18:09:20.364Z,102411.88
2022-08-31T18:11:47.788Z,102420.78
2022-08-31T18:14:16.648Z,102418.06
2022-08-31T18:16:45.009Z,102424.69
2022-08-31T18:19:12.342Z,102420.13
2022-08-31T18:21:38.957Z,102420.13
2022-08-31T18:24:06.420Z,102426.56
2022-08-31T18:26:36.335Z,102427.34
2022-08-31T18:29:05.864Z,102433.84
2022-08-31T18:31:33.359Z,102432.94
2022-08-31T18:34:01.743Z,102430.94
2022-08-31T18:36:28.914Z,102432.94
2022-08-31T18:38:57.653Z,102443.72
2022-08-31T18:41:45.752Z,102447.34
2022-08-31T18:44:32.024Z,102438.41
2022-08-31T18:47:09.454Z,102449.22
2022-08-31T18:49:41.922Z,102441.19
2022-08-31T18:52:24.567Z,102445.47
2022-08-31T18:54:56.493Z,102437.44
2022-08-31T18:57:25.206Z,102446.56
2022-08-31T18:59:51.918Z,102445.75
2022-08-31T19:02:22.744Z,102443.84
2022-08-31T19:04:50.785Z,102452.03
2022-08-31T19:07:18.743Z,102445.75
2022-08-31T19:09:45.907Z,102453.66
2022-08-31T19:12:16.262Z,102454.75
2022-08-31T19:14:43.680Z,102452.84
2022-08-31T19:17:11.610Z,102456.69
2022-08-31T19:19:38.243Z,102449.38
2022-08-31T19:22:04.912Z,102456.69
2022-08-31T19:24:32.944Z,102451.03
2022-08-31T19:27:00.421Z,102440.31
2022-08-31T19:29:29.867Z,102450.34
2022-08-31T19:31:59.361Z,102447.69
2022-08-31T19:34:31.862Z,102444.09
2022-08-31T19:36:59.546Z,102446.94
2022-08-31T19:39:28.713Z,102440.56
2022-08-31T19:42:05.881Z,102446.13
2022-08-31T19:47:27.914Z,102445.31
2022-08-31T19:49:55.159Z,102448.13
2022-08-31T19:52:24.278Z,102440.78
2022-08-31T19:54:52.219Z,102446.34
2022-08-31T19:57:21.479Z,102444.50
2022-08-31T19:59:49.662Z,102448.13
2022-08-31T20:02:17.224Z,102444.56
2022-08-31T20:04:45.318Z,102442.84
2022-08-31T20:07:13.542Z,102442.91
2022-08-31T20:09:40.385Z,102443.72
2022-08-31T20:12:07.094Z,102446.63
2022-08-31T20:14:33.744Z,102433.91
2022-08-31T20:17:00.514Z,102441.09
2022-08-31T20:19:28.217Z,102429.38
2022-08-31T20:21:59.961Z,102438.41
2022-08-31T20:24:27.447Z,102438.50
2022-08-31T20:26:57.251Z,102435.84
2022-08-31T20:29:23.940Z,102432.25
2022-08-31T20:31:52.366Z,102446.81
2022-08-31T20:34:22.073Z,102434.00
2022-08-31T20:36:58.518Z,102428.63
2022-08-31T20:39:29.505Z,102434.09
2022-08-31T20:41:58.837Z,102442.22
2022-08-31T20:44:34.823Z,102439.31
2022-08-31T20:47:26.637Z,102440.47
2022-08-31T20:49:55.778Z,102441.44
2022-08-31T20:52:24.770Z,102434.19
2022-08-31T20:55:01.751Z,102433.47
2022-08-31T20:57:29.604Z,102436.13
2022-08-31T20:59:56.218Z,102437.88
2022-08-31T21:02:22.894Z,102437.91
2022-08-31T21:04:50.151Z,102437.97
2022-08-31T21:07:19.054Z,102432.53
2022-08-31T21:09:46.298Z,102425.41
2022-08-31T21:12:18.108Z,102425.41
2022-08-31T21:14:45.623Z,102425.31
2022-08-31T21:17:15.831Z,102423.63
2022-08-31T21:19:43.549Z,102415.47
2022-08-31T21:22:13.153Z,102418.22
2022-08-31T21:24:43.369Z,102421.91
2022-08-31T21:27:13.581Z,102428.13
2022-08-31T21:29:40.282Z,102420.00
2022-08-31T21:32:09.480Z,102421.78
2022-08-31T21:34:36.741Z,102418.22
2022-08-31T21:37:03.402Z,102429.19
2022-08-31T21:39:32.257Z,102423.78
2022-08-31T21:41:59.329Z,102420.16
2022-08-31T21:44:26.144Z,102422.94
2022-08-31T21:46:52.825Z,102429.19
2022-08-31T21:49:19.640Z,102423.84
2022-08-31T21:51:52.297Z,102433.91
2022-08-31T21:54:20.921Z,102425.78
2022-08-31T21:56:52.927Z,102429.34
2022-08-31T21:59:21.056Z,102434.88
2022-08-31T22:01:48.157Z,102429.47
2022-08-31T22:04:16.227Z,102435.75
2022-08-31T22:06:43.229Z,102426.66
2022-08-31T22:09:13.548Z,102425.88
2022-08-31T22:11:46.038Z,102426.00
2022-08-31T22:14:16.404Z,102426.88
2022-08-31T22:16:46.610Z,102426.00
2022-08-31T22:19:15.528Z,102426.84
2022-08-31T22:21:44.499Z,102422.38
2022-08-31T22:24:20.915Z,102426.97
2022-08-31T22:26:54.748Z,102426.97
2022-08-31T22:29:24.403Z,102427.75
2022-08-31T22:31:53.631Z,102429.59
2022-08-31T22:34:21.165Z,102426.00
2022-08-31T22:36:51.991Z,102429.53
2022-08-31T22:39:22.489Z,102425.97
2022-08-31T22:41:49.577Z,102429.69
2022-08-31T22:44:19.365Z,102433.22
2022-08-31T22:46:46.528Z,102432.25
2022-08-31T22:49:14.406Z,102424.19
2022-08-31T22:51:42.349Z,102427.81
2022-08-31T22:54:10.180Z,102428.00
2022-08-31T22:56:38.672Z,102421.66
2022-08-31T22:59:08.321Z,102422.59
2022-08-31T23:01:38.295Z,102420.72
2022-08-31T23:04:06.878Z,102419.88
2022-08-31T23:06:35.447Z,102410.06
2022-08-31T23:09:02.996Z,102422.59
2022-08-31T23:11:29.714Z,102415.38
2022-08-31T23:13:57.352Z,102411.84
2022-08-31T23:16:46.432Z,102411.81
2022-08-31T23:19:19.848Z,102411.84
2022-08-31T23:21:52.537Z,102413.66
2022-08-31T23:24:30.402Z,102415.44
2022-08-31T23:27:01.648Z,102410.94
2022-08-31T23:29:32.063Z,102408.22
2022-08-31T23:32:00.788Z,102411.84
2022-08-31T23:34:27.988Z,102405.53
2022-08-31T23:36:55.598Z,102410.09
2022-08-31T23:39:23.795Z,102406.66
2022-08-31T23:41:51.112Z,102409.34
2022-08-31T23:44:20.475Z,102401.22
2022-08-31T23:46:47.320Z,102402.31
2022-08-31T23:49:17.379Z,102404.91
2022-08-31T23:51:44.405Z,102399.50
2022-08-31T23:54:12.528Z,102404.00
2022-08-31T23:56:41.760Z,102393.16
2022-08-31T23:59:11.500Z,102403.06
